Terminal Aerodrome Forecast
Issued by NWS

Home | Current Version | Previous Version | Text Only | Print | Product List | Glossary On
Versions: 1 2 3 4 5 6 7 8 9 10 11 12 13 14 15 16 17 18 19 20 21 22 23
000
FTUS46 KPDT 240500
TAFBDN
TAF
KBDN 240520Z 2406/2506 19008G15KT P6SM VCSH SCT060 OVC080
     FM240900 21007KT P6SM -RA BKN050 BKN070
     FM241200 21008G15KT P6SM -RA BKN040 OVC060
     FM241700 23010G20KT P6SM VCSH BKN060
     FM242100 24015G25KT P6SM -SHRA BKN050=

USA.gov is the U.S. government's official web portal to all federal, state and local government web resources and services.